createdAt,value
2017-10-31T00:00:20.664Z,7.07
2017-10-31T00:01:21.218Z,7.03
2017-10-31T00:02:21.785Z,7.11
2017-10-31T00:03:22.351Z,7.07
2017-10-31T00:04:22.920Z,7.03
2017-10-31T00:05:23.497Z,7.14
2017-10-31T00:06:24.067Z,7.23
2017-10-31T00:07:24.632Z,7.13
2017-10-31T00:08:25.201Z,7.15
2017-10-31T00:09:25.768Z,7.20
2017-10-31T00:10:26.348Z,7.17
2017-10-31T00:11:26.926Z,7.17
2017-10-31T00:12:27.492Z,7.24
2017-10-31T00:13:28.060Z,7.15
2017-10-31T00:14:28.639Z,7.20
2017-10-31T00:15:29.206Z,7.20
2017-10-31T00:16:29.775Z,7.14
2017-10-31T00:17:30.342Z,7.17
2017-10-31T00:18:30.910Z,7.18
2017-10-31T00:19:31.476Z,7.17
2017-10-31T00:20:32.055Z,7.20
2017-10-31T00:21:32.624Z,7.21
2017-10-31T00:22:33.191Z,7.18
2017-10-31T00:23:33.759Z,7.28
2017-10-31T00:24:34.327Z,7.31
2017-10-31T00:25:34.896Z,7.31
2017-10-31T00:26:35.464Z,7.32
2017-10-31T00:27:36.034Z,7.28
2017-10-31T00:28:36.601Z,7.31
2017-10-31T00:29:37.168Z,7.39
2017-10-31T00:30:37.734Z,7.35
2017-10-31T00:31:38.301Z,7.35
2017-10-31T00:32:38.871Z,7.31
2017-10-31T00:33:39.446Z,7.35
2017-10-31T00:34:40.022Z,7.32
2017-10-31T00:35:40.584Z,7.28
2017-10-31T00:36:41.149Z,7.33
2017-10-31T00:37:41.717Z,7.32
2017-10-31T00:38:42.286Z,7.25
2017-10-31T00:39:42.855Z,7.32
2017-10-31T00:40:43.421Z,7.23
2017-10-31T00:41:43.993Z,7.14
2017-10-31T00:42:44.565Z,7.15
2017-10-31T09:25:37.915Z,8.67
2017-10-31T09:26:38.485Z,8.78
2017-10-31T09:27:39.066Z,8.81
2017-10-31T09:28:39.638Z,8.79
2017-10-31T09:29:40.220Z,9.08
2017-10-31T09:30:40.791Z,8.94
2017-10-31T09:31:41.371Z,9.02
2017-10-31T09:32:41.943Z,9.26
2017-10-31T09:33:42.513Z,9.08
2017-10-31T09:34:43.082Z,9.10
2017-10-31T09:35:43.651Z,9.03
2017-10-31T09:36:44.223Z,9.03
2017-10-31T09:37:44.805Z,9.10
2017-10-31T09:38:45.374Z,9.16
2017-10-31T09:39:45.958Z,9.04
2017-10-31T09:40:46.533Z,9.11
2017-10-31T09:41:47.101Z,9.10
2017-10-31T09:42:47.670Z,9.21
2017-10-31T09:43:48.242Z,9.19
2017-10-31T09:44:48.816Z,9.13
2017-10-31T09:45:49.394Z,9.04
2017-10-31T09:46:49.965Z,9.13
2017-10-31T09:47:50.535Z,9.02
2017-10-31T09:48:51.110Z,9.13
2017-10-31T09:49:51.682Z,9.14
2017-10-31T09:50:52.249Z,9.10
2017-10-31T09:51:52.834Z,9.14
2017-10-31T09:52:53.402Z,9.06
2017-10-31T09:53:53.975Z,9.14
2017-10-31T09:54:54.547Z,9.16
2017-10-31T09:55:55.132Z,9.10
2017-10-31T09:56:55.703Z,9.19
2017-10-31T09:57:56.271Z,9.26
2017-10-31T09:58:56.856Z,9.11
2017-10-31T09:59:57.427Z,9.10
2017-10-31T10:00:57.998Z,9.16
2017-10-31T10:01:58.568Z,9.08
2017-10-31T10:02:59.137Z,9.16
2017-10-31T10:03:59.708Z,9.28
2017-10-31T10:05:00.281Z,9.04
2017-10-31T10:06:00.853Z,9.10
2017-10-31T10:07:01.423Z,9.19
2017-10-31T10:08:01.995Z,9.19
2017-10-31T10:09:02.565Z,9.32
2017-10-31T10:10:03.135Z,9.08
2017-10-31T10:11:03.708Z,9.40
2017-10-31T10:12:04.280Z,9.23
2017-10-31T10:13:04.858Z,9.23
2017-10-31T10:14:05.425Z,9.66
2017-10-31T10:15:05.995Z,9.51
2017-10-31T10:16:06.568Z,9.50
2017-10-31T10:17:07.141Z,9.40
2017-10-31T10:18:07.712Z,9.54
2017-10-31T10:19:08.284Z,9.23
2017-10-31T10:20:08.869Z,9.29
2017-10-31T10:21:09.463Z,9.28
2017-10-31T10:22:10.027Z,9.18
2017-10-31T10:23:10.600Z,9.21
2017-10-31T10:24:11.172Z,9.25
2017-10-31T10:25:11.743Z,9.25
2017-10-31T10:26:12.317Z,9.34
2017-10-31T10:27:12.888Z,9.64
2017-10-31T10:28:13.462Z,9.95
2017-10-31T10:29:14.046Z,9.56
2017-10-31T10:30:14.617Z,9.43
2017-10-31T10:31:15.190Z,9.77
2017-10-31T10:32:15.761Z,9.51
2017-10-31T10:33:16.332Z,9.44
2017-10-31T10:34:16.906Z,9.65
2017-10-31T10:35:17.478Z,9.58
2017-10-31T10:36:18.050Z,9.43
2017-10-31T10:37:18.634Z,9.66
2017-10-31T10:38:19.207Z,9.65
2017-10-31T10:39:19.777Z,9.50
2017-10-31T10:40:20.349Z,9.58
2017-10-31T10:41:20.928Z,9.59
2017-10-31T10:42:21.505Z,9.79
2017-10-31T10:43:22.075Z,9.59
2017-10-31T10:44:22.646Z,9.54
2017-10-31T10:45:23.219Z,9.44
2017-10-31T10:46:23.790Z,9.40
2017-10-31T10:47:24.373Z,9.46
2017-10-31T10:48:24.947Z,9.44
2017-10-31T10:49:25.520Z,9.47
2017-10-31T10:50:26.091Z,9.43
2017-10-31T10:51:26.676Z,9.39
2017-10-31T10:52:27.259Z,9.48
2017-10-31T10:53:27.833Z,9.43
2017-10-31T10:54:28.403Z,9.44
2017-10-31T10:55:28.985Z,9.44
2017-10-31T10:56:29.557Z,9.44
2017-10-31T10:57:30.131Z,9.56
2017-10-31T10:58:30.704Z,9.50
2017-10-31T10:59:31.275Z,9.58
2017-10-31T11:00:31.846Z,9.62
2017-10-31T11:01:32.419Z,9.92
2017-10-31T11:02:32.993Z,9.76
2017-10-31T11:03:33.565Z,9.79
2017-10-31T11:04:34.136Z,9.68
2017-10-31T11:05:34.708Z,9.76
2017-10-31T11:06:35.283Z,9.95
2017-10-31T11:07:35.958Z,9.73
2017-10-31T11:08:36.538Z,9.66
2017-10-31T11:09:37.110Z,9.83
2017-10-31T11:10:37.686Z,9.84
2017-10-31T11:11:38.255Z,9.74
2017-10-31T11:12:38.826Z,9.77
2017-10-31T11:13:39.403Z,9.86
2017-10-31T11:14:39.971Z,9.98
2017-10-31T11:15:40.544Z,9.92
2017-10-31T11:16:41.127Z,9.82
2017-10-31T11:17:41.699Z,9.95
2017-10-31T11:18:42.284Z,9.98
2017-10-31T11:19:42.857Z,9.99
2017-10-31T11:20:43.428Z,10.01
2017-10-31T11:21:44.001Z,10.04
2017-10-31T11:22:44.577Z,10.22
2017-10-31T11:23:45.162Z,10.15
2017-10-31T11:24:45.735Z,10.13
2017-10-31T11:25:46.310Z,10.16
2017-10-31T11:26:46.883Z,10.15
2017-10-31T11:27:47.457Z,10.20
2017-10-31T11:28:48.032Z,10.19
2017-10-31T11:29:48.606Z,10.33
2017-10-31T11:30:49.180Z,10.41
2017-10-31T11:31:49.754Z,10.40
2017-10-31T11:32:50.327Z,10.31
2017-10-31T11:33:50.904Z,10.40
2017-10-31T11:34:51.476Z,10.42
2017-10-31T11:35:52.051Z,10.41
2017-10-31T11:36:52.633Z,10.57
2017-10-31T11:37:53.199Z,10.49
2017-10-31T11:38:53.773Z,10.49
2017-10-31T11:39:54.350Z,10.49
2017-10-31T11:40:54.920Z,10.44
2017-10-31T11:41:55.496Z,10.40
2017-10-31T11:42:56.067Z,10.41
2017-10-31T11:43:56.642Z,10.46
2017-10-31T11:44:57.217Z,10.46
2017-10-31T11:45:57.790Z,10.37
2017-10-31T11:46:58.363Z,10.38
2017-10-31T11:47:58.948Z,10.49
2017-10-31T11:48:59.522Z,10.64
2017-10-31T11:50:00.096Z,10.63
2017-10-31T11:51:00.671Z,10.53
2017-10-31T11:52:01.260Z,10.41
2017-10-31T11:53:01.843Z,10.44
2017-10-31T11:54:02.420Z,10.59
2017-10-31T11:55:03.004Z,10.63
2017-10-31T11:56:03.590Z,10.68
2017-10-31T11:57:04.164Z,10.49
2017-10-31T11:58:04.749Z,10.48
2017-10-31T11:59:05.349Z,10.41
2017-10-31T12:00:05.899Z,10.57
2017-10-31T12:01:06.484Z,10.59
2017-10-31T12:02:07.058Z,10.64
2017-10-31T12:03:07.631Z,10.72
2017-10-31T12:04:08.204Z,10.57
2017-10-31T12:05:08.777Z,10.56
2017-10-31T12:06:09.352Z,10.63
2017-10-31T12:07:09.924Z,10.60
2017-10-31T12:08:10.498Z,10.59
2017-10-31T12:09:11.072Z,10.68
2017-10-31T12:10:11.645Z,10.68
2017-10-31T12:11:12.221Z,10.67
2017-10-31T12:12:12.793Z,10.74
2017-10-31T12:13:13.366Z,10.60
2017-10-31T12:14:13.941Z,10.64
2017-10-31T12:15:14.515Z,10.69
2017-10-31T12:16:15.090Z,10.67
2017-10-31T12:17:15.664Z,10.63
2017-10-31T12:18:16.246Z,10.75
2017-10-31T12:19:16.813Z,10.86
2017-10-31T12:20:17.401Z,10.86
2017-10-31T12:21:17.961Z,10.93
2017-10-31T12:22:18.538Z,10.86
2017-10-31T12:23:19.111Z,10.76
2017-10-31T12:24:19.685Z,10.94
2017-10-31T12:25:20.259Z,10.87
2017-10-31T12:26:20.832Z,10.86
2017-10-31T12:27:21.412Z,10.92
2017-10-31T12:28:21.981Z,10.82
2017-10-31T12:29:22.555Z,10.94
2017-10-31T12:30:23.131Z,11.02
2017-10-31T12:31:23.705Z,10.92
2017-10-31T12:32:24.279Z,11.04
2017-10-31T12:33:24.853Z,10.94
2017-10-31T12:34:25.440Z,11.00
2017-10-31T12:35:26.013Z,10.82
2017-10-31T12:36:26.592Z,10.94
2017-10-31T12:37:27.161Z,11.04
2017-10-31T12:38:27.735Z,11.00
2017-10-31T12:39:28.308Z,10.93
2017-10-31T12:40:28.882Z,10.97
2017-10-31T12:41:29.458Z,10.94
2017-10-31T12:42:30.032Z,11.10
2017-10-31T12:43:30.606Z,11.07
2017-10-31T12:44:31.181Z,11.00
2017-10-31T12:45:31.754Z,10.89
2017-10-31T12:46:32.329Z,10.92
2017-10-31T12:47:32.902Z,10.94
2017-10-31T12:48:33.476Z,10.90
2017-10-31T12:49:34.060Z,10.97
2017-10-31T12:50:34.634Z,11.05
2017-10-31T12:51:35.209Z,10.99
2017-10-31T12:52:35.784Z,11.05
2017-10-31T12:53:36.358Z,11.07
2017-10-31T12:54:36.930Z,11.10
2017-10-31T12:55:37.506Z,11.00
2017-10-31T12:56:38.080Z,11.08
2017-10-31T12:57:38.658Z,11.12
2017-10-31T12:58:39.232Z,11.14
2017-10-31T12:59:39.803Z,11.18
2017-10-31T13:00:40.377Z,11.12
2017-10-31T13:01:40.962Z,11.10
2017-10-31T13:02:41.537Z,11.23
2017-10-31T13:03:42.114Z,11.11
2017-10-31T13:04:42.684Z,11.17
2017-10-31T13:05:43.256Z,11.07
2017-10-31T13:06:43.832Z,11.23
2017-10-31T13:07:44.406Z,11.15
2017-10-31T13:08:44.979Z,11.11
2017-10-31T13:09:45.554Z,11.15
2017-10-31T13:10:46.128Z,11.14
2017-10-31T13:11:46.712Z,11.17
2017-10-31T13:12:47.284Z,11.14
2017-10-31T13:13:47.859Z,11.10
2017-10-31T13:14:48.438Z,11.18
2017-10-31T13:15:49.020Z,11.23
2017-10-31T13:16:49.594Z,11.08
2017-10-31T13:17:50.167Z,11.07
2017-10-31T13:18:50.741Z,11.12
2017-10-31T13:19:51.315Z,11.05
2017-10-31T13:20:51.890Z,11.11
2017-10-31T13:21:52.465Z,11.19
2017-10-31T13:22:53.037Z,11.22
2017-10-31T13:23:53.633Z,11.18
2017-10-31T13:24:54.195Z,11.26
2017-10-31T13:25:54.771Z,11.19
2017-10-31T13:26:55.347Z,11.18
2017-10-31T13:27:55.923Z,11.11
2017-10-31T13:28:56.494Z,11.04
2017-10-31T13:29:57.067Z,11.18
2017-10-31T13:30:57.642Z,11.23
2017-10-31T13:31:58.217Z,11.12
2017-10-31T13:32:58.792Z,11.18
2017-10-31T13:33:59.362Z,11.25
2017-10-31T13:34:59.936Z,11.23
2017-10-31T13:36:00.510Z,11.11
2017-10-31T13:37:01.084Z,11.17
2017-10-31T13:38:01.657Z,11.05
2017-10-31T13:39:02.242Z,11.08
2017-10-31T13:40:02.818Z,11.04
2017-10-31T13:41:03.402Z,11.11
2017-10-31T13:42:03.974Z,11.14
2017-10-31T13:43:04.546Z,11.07
2017-10-31T13:44:05.119Z,11.12
2017-10-31T13:45:05.692Z,11.10
2017-10-31T13:46:06.275Z,11.12
2017-10-31T13:47:06.851Z,10.97
2017-10-31T13:48:07.425Z,11.10
2017-10-31T13:49:07.999Z,11.18
2017-10-31T13:50:08.571Z,11.07
2017-10-31T13:51:09.144Z,11.04
2017-10-31T13:52:09.717Z,11.00
2017-10-31T13:53:10.291Z,11.00
2017-10-31T13:54:10.864Z,10.97
2017-10-31T13:55:11.438Z,10.92
2017-10-31T13:56:12.011Z,10.94
2017-10-31T13:57:12.619Z,10.94
2017-10-31T13:58:13.157Z,10.96
2017-10-31T13:59:13.732Z,10.86
2017-10-31T14:00:14.303Z,11.00
2017-10-31T14:01:14.877Z,10.94
2017-10-31T14:02:15.450Z,10.90
2017-10-31T14:03:16.022Z,10.84
2017-10-31T14:04:16.606Z,10.87
2017-10-31T14:05:17.179Z,10.82
2017-10-31T14:06:17.763Z,10.90
2017-10-31T14:07:18.336Z,10.97
2017-10-31T14:08:18.909Z,10.87
2017-10-31T14:09:19.483Z,10.86
2017-10-31T14:10:20.057Z,10.86
2017-10-31T14:11:20.630Z,10.87
2017-10-31T14:12:21.204Z,10.76
2017-10-31T14:13:21.788Z,10.87
2017-10-31T14:14:22.360Z,10.86
2017-10-31T14:15:22.934Z,10.78
2017-10-31T14:16:23.510Z,10.97
2017-10-31T14:17:24.081Z,10.76
2017-10-31T14:18:24.654Z,10.75
2017-10-31T14:19:25.227Z,10.78
2017-10-31T14:20:25.811Z,10.81
2017-10-31T14:21:26.382Z,10.74
2017-10-31T14:22:26.955Z,10.76
2017-10-31T14:23:27.526Z,10.67
2017-10-31T14:24:28.101Z,10.86
2017-10-31T14:25:28.674Z,10.74
2017-10-31T14:26:29.248Z,10.68
2017-10-31T14:27:29.819Z,10.67
2017-10-31T14:28:30.391Z,10.68
2017-10-31T14:29:30.966Z,10.68
2017-10-31T14:30:31.536Z,10.68
2017-10-31T14:31:32.114Z,10.75
2017-10-31T14:32:32.683Z,10.69
2017-10-31T14:33:33.255Z,10.61
2017-10-31T14:34:33.828Z,10.64
2017-10-31T14:35:34.401Z,10.78
2017-10-31T14:36:34.976Z,10.76
2017-10-31T14:37:35.551Z,10.72
2017-10-31T14:38:36.119Z,10.79
2017-10-31T14:39:36.690Z,10.60
2017-10-31T14:40:37.272Z,10.72
2017-10-31T14:41:37.845Z,10.76
2017-10-31T14:42:38.416Z,10.69
2017-10-31T14:43:38.988Z,10.59
2017-10-31T14:44:39.559Z,10.71
2017-10-31T14:45:40.130Z,10.71
2017-10-31T14:46:40.707Z,10.75
2017-10-31T14:47:41.288Z,10.60
2017-10-31T14:48:41.861Z,10.57
2017-10-31T14:49:42.433Z,10.56
2017-10-31T14:50:43.005Z,10.59
2017-10-31T14:51:43.576Z,10.81
2017-10-31T14:52:44.148Z,10.74
2017-10-31T14:53:44.732Z,10.63
2017-10-31T14:54:45.304Z,10.49
2017-10-31T14:55:45.875Z,10.41
2017-10-31T14:56:46.446Z,10.56
2017-10-31T14:57:47.016Z,10.60
2017-10-31T14:58:47.589Z,10.49
2017-10-31T14:59:48.161Z,10.48
2017-10-31T15:00:48.734Z,10.44
2017-10-31T15:01:49.306Z,10.56
2017-10-31T15:02:49.890Z,10.41
2017-10-31T15:03:50.462Z,10.56
2017-10-31T15:04:51.186Z,10.41
2017-10-31T15:05:51.756Z,10.38
2017-10-31T15:06:52.326Z,10.40
2017-10-31T15:07:52.899Z,10.38
2017-10-31T15:08:53.470Z,10.35
2017-10-31T15:09:54.043Z,10.37
2017-10-31T15:10:54.616Z,10.40
2017-10-31T15:11:55.188Z,10.42
2017-10-31T15:12:55.759Z,10.23
2017-10-31T15:13:56.331Z,10.44
2017-10-31T15:14:56.903Z,10.30
2017-10-31T15:15:57.477Z,10.25
2017-10-31T15:16:58.059Z,10.37
2017-10-31T15:17:58.629Z,10.38
2017-10-31T15:18:59.210Z,10.61
2017-10-31T15:19:59.773Z,10.41
2017-10-31T15:21:00.345Z,10.37
2017-10-31T15:22:00.917Z,10.63
2017-10-31T15:23:01.490Z,10.34
2017-10-31T15:24:02.068Z,10.19
2017-10-31T15:25:02.644Z,10.30
2017-10-31T15:26:03.216Z,10.31
2017-10-31T15:27:03.796Z,10.35
2017-10-31T15:28:04.377Z,10.41
2017-10-31T15:29:04.944Z,10.26
2017-10-31T15:30:05.518Z,10.61
2017-10-31T15:31:06.101Z,10.46
2017-10-31T15:32:06.671Z,10.49
2017-10-31T15:33:07.243Z,10.35
2017-10-31T15:34:07.815Z,10.16
2017-10-31T15:35:08.397Z,10.17
2017-10-31T15:36:08.981Z,10.13
2017-10-31T15:37:09.552Z,10.20
2017-10-31T15:38:10.133Z,10.16
2017-10-31T15:39:10.704Z,10.19
2017-10-31T15:40:11.294Z,10.26
2017-10-31T15:41:11.846Z,10.37
2017-10-31T15:42:12.420Z,10.15
2017-10-31T15:43:12.990Z,10.19
2017-10-31T15:44:13.565Z,10.38
2017-10-31T15:45:14.130Z,10.64
2017-10-31T15:46:14.705Z,10.25
2017-10-31T15:47:15.270Z,10.15
2017-10-31T15:48:15.841Z,10.09
2017-10-31T15:49:16.413Z,10.02
2017-10-31T15:50:16.979Z,9.97
2017-10-31T15:51:17.550Z,9.98
2017-10-31T15:52:18.121Z,10.12
2017-10-31T15:53:18.694Z,10.05
2017-10-31T15:54:19.267Z,10.26
2017-10-31T15:55:19.836Z,10.04
2017-10-31T15:56:20.418Z,9.91
2017-10-31T15:57:20.988Z,9.94
2017-10-31T15:58:21.560Z,10.23
2017-10-31T15:59:22.131Z,10.01
2017-10-31T16:00:22.701Z,10.01
2017-10-31T16:01:23.270Z,10.22
2017-10-31T16:02:23.841Z,10.01
2017-10-31T16:03:24.409Z,9.94
2017-10-31T16:04:24.979Z,9.95
2017-10-31T16:05:25.548Z,9.94
2017-10-31T16:06:26.118Z,10.23
2017-10-31T16:07:26.686Z,9.94
2017-10-31T16:08:27.255Z,9.98
2017-10-31T16:09:27.828Z,9.95
2017-10-31T16:10:28.404Z,9.83
2017-10-31T16:11:28.974Z,9.77
2017-10-31T16:12:29.545Z,9.68
2017-10-31T16:13:30.113Z,9.76
2017-10-31T16:14:30.684Z,9.76
2017-10-31T16:15:31.253Z,9.80
2017-10-31T16:16:31.822Z,9.64
2017-10-31T16:17:32.391Z,9.72
2017-10-31T16:18:32.972Z,9.77
2017-10-31T16:19:33.541Z,9.72
2017-10-31T16:20:34.121Z,9.74
2017-10-31T16:21:34.690Z,9.69
2017-10-31T16:22:35.258Z,9.62
2017-10-31T16:23:35.827Z,9.65
2017-10-31T16:24:36.408Z,9.68
2017-10-31T16:25:36.976Z,9.65
2017-10-31T16:26:37.551Z,9.64
2017-10-31T16:27:38.116Z,9.56
2017-10-31T16:28:38.684Z,9.54
2017-10-31T16:29:39.254Z,9.51
2017-10-31T16:30:39.827Z,9.56
2017-10-31T16:31:40.394Z,9.58
2017-10-31T16:32:40.962Z,9.54
2017-10-31T16:33:41.531Z,9.56
2017-10-31T16:34:42.098Z,9.55
2017-10-31T16:35:42.668Z,9.55
2017-10-31T16:36:43.237Z,9.51
2017-10-31T16:37:43.805Z,9.55
2017-10-31T16:38:44.386Z,9.41
2017-10-31T16:39:44.956Z,9.44
2017-10-31T16:40:45.526Z,9.44
2017-10-31T16:41:46.096Z,9.44
2017-10-31T16:42:46.664Z,9.50
2017-10-31T16:43:47.234Z,9.48
2017-10-31T16:44:47.802Z,9.46
2017-10-31T16:45:48.370Z,9.41
2017-10-31T16:46:48.939Z,9.36
2017-10-31T16:47:49.508Z,9.43
2017-10-31T16:48:50.079Z,9.41
2017-10-31T16:49:50.658Z,9.39
2017-10-31T16:50:51.227Z,9.41
2017-10-31T16:51:51.795Z,9.39
2017-10-31T16:52:52.374Z,9.32
2017-10-31T16:53:52.949Z,9.34
2017-10-31T16:54:53.509Z,9.36
2017-10-31T16:55:54.082Z,9.36
2017-10-31T16:56:54.659Z,9.26
2017-10-31T16:57:55.230Z,9.31
2017-10-31T16:58:55.800Z,9.25
2017-10-31T16:59:56.378Z,9.25
2017-10-31T17:00:56.949Z,9.26
2017-10-31T17:01:57.518Z,9.26
2017-10-31T17:02:58.087Z,9.21
2017-10-31T17:03:58.659Z,9.26
2017-10-31T17:04:59.226Z,9.25
2017-10-31T17:05:59.800Z,9.32
2017-10-31T17:07:00.365Z,9.21
2017-10-31T17:08:00.932Z,9.22
2017-10-31T17:09:01.503Z,9.22
2017-10-31T17:10:02.070Z,9.23
2017-10-31T17:11:02.639Z,9.25
2017-10-31T17:12:03.208Z,9.21
2017-10-31T17:13:03.777Z,9.22
2017-10-31T17:14:04.345Z,9.19
2017-10-31T17:15:04.915Z,9.22
2017-10-31T17:16:05.481Z,9.16
2017-10-31T17:17:06.048Z,9.13
2017-10-31T17:18:06.617Z,9.19
2017-10-31T17:19:07.188Z,9.06
2017-10-31T17:20:07.753Z,9.18
2017-10-31T17:21:08.322Z,9.14
2017-10-31T17:22:08.890Z,9.18
2017-10-31T17:23:09.458Z,9.19
2017-10-31T17:24:10.028Z,9.28
2017-10-31T17:25:10.695Z,9.14
2017-10-31T17:26:11.266Z,9.21
2017-10-31T17:27:11.841Z,9.26
2017-10-31T17:28:12.403Z,9.21
2017-10-31T17:29:12.984Z,9.19
2017-10-31T17:30:13.552Z,9.14
2017-10-31T17:31:14.122Z,9.22
2017-10-31T17:32:14.691Z,9.16
2017-10-31T17:33:15.273Z,9.21
2017-10-31T17:34:15.842Z,9.28
2017-10-31T17:35:16.413Z,9.22
2017-10-31T17:36:16.992Z,9.21
2017-10-31T17:37:17.561Z,9.26
2017-10-31T17:38:18.130Z,9.23
2017-10-31T17:39:18.699Z,9.32
2017-10-31T17:40:19.266Z,9.18
2017-10-31T17:41:19.836Z,9.23
2017-10-31T17:42:20.405Z,9.23
2017-10-31T17:43:20.976Z,9.22
2017-10-31T17:44:21.544Z,9.26
2017-10-31T17:45:22.124Z,9.22
2017-10-31T17:46:22.693Z,9.28
2017-10-31T17:47:23.273Z,9.23
2017-10-31T17:48:23.844Z,9.31
2017-10-31T17:49:24.423Z,9.31
2017-10-31T17:50:24.991Z,9.25
2017-10-31T17:51:25.559Z,9.23
2017-10-31T17:52:26.127Z,9.25
2017-10-31T17:53:26.695Z,9.34
2017-10-31T17:54:27.262Z,9.25
2017-10-31T17:55:27.829Z,9.25
2017-10-31T17:56:28.397Z,9.36
2017-10-31T17:57:28.966Z,9.31
2017-10-31T17:58:29.534Z,9.43
2017-10-31T17:59:30.108Z,9.31
2017-10-31T18:00:30.773Z,9.34
2017-10-31T18:01:31.342Z,9.34
2017-10-31T18:02:31.911Z,9.28
2017-10-31T18:03:32.484Z,9.34
2017-10-31T18:04:33.048Z,9.40
2017-10-31T18:05:33.617Z,9.39
2017-10-31T18:06:34.185Z,9.51
2017-10-31T18:07:34.754Z,9.48
2017-10-31T18:08:35.333Z,9.47
2017-10-31T18:09:35.902Z,9.50
2017-10-31T18:10:36.479Z,9.50
2017-10-31T18:11:37.041Z,9.44
2017-10-31T18:12:37.609Z,9.40
2017-10-31T18:13:38.178Z,9.43
2017-10-31T18:14:38.750Z,9.39
2017-10-31T18:15:39.315Z,9.43
2017-10-31T18:16:39.887Z,9.41
2017-10-31T18:17:40.465Z,9.43
2017-10-31T18:18:41.034Z,9.48
2017-10-31T18:19:41.604Z,9.44
2017-10-31T18:20:42.173Z,9.36
2017-10-31T18:21:42.753Z,9.51
2017-10-31T18:22:43.324Z,9.41
2017-10-31T18:23:43.892Z,9.48
2017-10-31T18:24:44.464Z,9.37
2017-10-31T18:25:45.033Z,9.39
2017-10-31T18:26:45.603Z,9.51
2017-10-31T18:27:46.170Z,9.64
2017-10-31T18:28:46.747Z,9.61
2017-10-31T18:29:47.316Z,9.61
2017-10-31T18:30:47.884Z,9.55
2017-10-31T18:31:48.452Z,9.55
2017-10-31T18:32:49.033Z,9.55
2017-10-31T18:33:49.603Z,9.55
2017-10-31T18:34:50.173Z,9.56
2017-10-31T18:35:50.744Z,9.59
2017-10-31T18:36:51.309Z,9.48
2017-10-31T18:37:51.880Z,9.54
2017-10-31T18:38:52.452Z,9.56
2017-10-31T18:39:53.029Z,9.55
2017-10-31T18:40:53.597Z,9.62
2017-10-31T18:41:54.176Z,9.68
2017-10-31T18:42:54.745Z,9.68
2017-10-31T18:43:55.313Z,9.56
2017-10-31T18:44:55.882Z,9.58
2017-10-31T18:45:56.450Z,9.64
2017-10-31T18:46:57.017Z,9.56
2017-10-31T18:47:57.588Z,9.61
2017-10-31T18:48:58.170Z,9.66
2017-10-31T18:49:58.747Z,9.59
2017-10-31T18:50:59.318Z,9.66
2017-10-31T18:51:59.887Z,9.62
2017-10-31T18:53:00.458Z,9.65
2017-10-31T18:54:01.027Z,9.62
2017-10-31T18:55:01.597Z,9.64
2017-10-31T18:56:02.166Z,9.62
2017-10-31T18:57:02.736Z,9.74
2017-10-31T18:58:03.305Z,9.74
2017-10-31T18:59:03.874Z,9.72
2017-10-31T19:00:04.458Z,9.74
2017-10-31T19:01:05.026Z,9.68
2017-10-31T19:02:05.597Z,9.61
2017-10-31T19:03:06.177Z,9.77
2017-10-31T19:04:06.747Z,9.79
2017-10-31T19:05:07.317Z,9.79
2017-10-31T19:06:07.886Z,9.74
2017-10-31T19:07:08.457Z,9.74
2017-10-31T19:08:09.025Z,9.77
2017-10-31T19:09:09.596Z,9.74
2017-10-31T19:10:10.177Z,9.77
2017-10-31T19:11:10.746Z,9.79
2017-10-31T19:12:11.326Z,9.77
2017-10-31T19:13:11.895Z,9.77
2017-10-31T19:14:12.463Z,9.79
2017-10-31T19:15:13.031Z,9.79
2017-10-31T19:16:13.601Z,9.82
2017-10-31T19:17:14.168Z,9.79
2017-10-31T19:18:14.735Z,9.80
2017-10-31T19:19:15.305Z,9.84
2017-10-31T19:20:15.875Z,9.80
2017-10-31T19:21:16.444Z,9.80
2017-10-31T19:22:17.014Z,9.91
2017-10-31T19:23:17.585Z,9.76
2017-10-31T19:24:18.153Z,9.79
2017-10-31T19:25:18.725Z,9.79
2017-10-31T19:26:19.294Z,9.79
2017-10-31T19:27:19.866Z,9.86
2017-10-31T19:28:20.434Z,9.86
2017-10-31T19:29:21.002Z,9.84
2017-10-31T19:30:21.570Z,9.83
2017-10-31T19:31:22.139Z,9.83
2017-10-31T19:32:22.718Z,9.86
2017-10-31T19:33:23.288Z,9.77
2017-10-31T19:34:23.857Z,9.87
2017-10-31T19:35:24.429Z,9.86
2017-10-31T19:36:24.999Z,9.86
2017-10-31T19:37:25.566Z,9.83
2017-10-31T19:38:26.137Z,9.80
2017-10-31T19:39:26.705Z,9.87
2017-10-31T19:40:27.274Z,9.87
2017-10-31T19:41:27.843Z,9.91
2017-10-31T19:42:28.424Z,9.91
2017-10-31T19:43:28.994Z,9.95
2017-10-31T19:44:29.563Z,9.91
2017-10-31T19:45:30.134Z,9.89
2017-10-31T19:46:30.701Z,9.83
2017-10-31T19:47:31.272Z,9.91
2017-10-31T19:48:31.839Z,9.87
2017-10-31T19:49:32.408Z,9.84
2017-10-31T19:50:32.977Z,9.86
2017-10-31T19:51:33.546Z,9.82
2017-10-31T19:52:34.117Z,9.80
2017-10-31T19:53:34.683Z,9.80
2017-10-31T19:54:35.252Z,9.80
2017-10-31T19:55:35.822Z,9.83
2017-10-31T19:56:36.389Z,9.79
2017-10-31T19:57:36.958Z,9.69
2017-10-31T19:58:37.527Z,9.74
2017-10-31T19:59:38.095Z,9.76
2017-10-31T20:00:38.663Z,9.76
2017-10-31T20:01:39.232Z,9.77
2017-10-31T20:02:39.814Z,9.72
2017-10-31T20:03:40.381Z,9.72
2017-10-31T20:04:40.950Z,9.64
2017-10-31T20:05:41.522Z,9.66
2017-10-31T20:06:42.111Z,9.64
2017-10-31T20:07:42.657Z,9.77
2017-10-31T20:08:43.237Z,9.74
2017-10-31T20:09:43.809Z,9.74
2017-10-31T20:10:44.394Z,9.64
2017-10-31T20:11:44.948Z,9.73
2017-10-31T20:12:45.516Z,9.68
2017-10-31T20:13:46.089Z,9.73
2017-10-31T20:14:46.654Z,9.77
2017-10-31T20:15:47.224Z,9.74
2017-10-31T20:16:47.793Z,9.74
2017-10-31T20:17:48.377Z,9.66
2017-10-31T20:18:48.943Z,9.74
2017-10-31T20:19:49.512Z,9.76
2017-10-31T20:20:50.082Z,9.80
2017-10-31T20:21:50.651Z,9.73
2017-10-31T20:22:51.222Z,9.66
2017-10-31T20:23:51.789Z,9.65
2017-10-31T20:24:52.361Z,9.65
2017-10-31T20:25:52.930Z,9.62
2017-10-31T20:26:53.499Z,9.72
2017-10-31T20:27:54.092Z,9.62
2017-10-31T20:28:54.648Z,9.68
2017-10-31T20:29:55.221Z,9.58
2017-10-31T20:30:55.786Z,9.50
2017-10-31T20:31:56.356Z,9.62
2017-10-31T20:32:56.925Z,9.59
2017-10-31T20:33:57.495Z,9.51
2017-10-31T20:34:58.063Z,9.50
2017-10-31T20:35:58.633Z,9.48
2017-10-31T20:36:59.200Z,9.46
2017-10-31T20:37:59.780Z,9.43
2017-10-31T20:39:00.355Z,9.44
2017-10-31T20:40:00.919Z,9.50
2017-10-31T20:41:01.489Z,9.51
2017-10-31T20:42:02.056Z,9.39
2017-10-31T20:43:02.629Z,9.37
2017-10-31T20:44:03.194Z,9.25
2017-10-31T20:45:03.766Z,9.39
2017-10-31T20:46:04.334Z,9.26
2017-10-31T20:47:04.903Z,9.36
2017-10-31T20:48:05.472Z,9.31
2017-10-31T20:49:06.040Z,9.32
2017-10-31T20:50:06.614Z,9.29
2017-10-31T20:51:07.176Z,9.36
2017-10-31T20:52:07.760Z,9.29
2017-10-31T20:53:08.336Z,9.29
2017-10-31T20:54:08.981Z,9.37
2017-10-31T20:55:09.449Z,9.26
2017-10-31T20:56:10.017Z,9.23
2017-10-31T20:57:10.586Z,9.34
2017-10-31T20:58:11.155Z,9.26
2017-10-31T20:59:11.737Z,9.31
2017-10-31T21:00:12.307Z,9.29
2017-10-31T21:01:12.875Z,9.26
2017-10-31T21:02:13.444Z,9.22
2017-10-31T21:03:14.029Z,9.32
2017-10-31T21:04:14.594Z,9.25
2017-10-31T21:05:15.168Z,9.25
2017-10-31T21:06:15.745Z,9.21
2017-10-31T21:07:16.314Z,9.28
2017-10-31T21:08:16.883Z,9.26
2017-10-31T21:09:17.452Z,9.26
2017-10-31T21:10:18.020Z,9.23
2017-10-31T21:11:18.588Z,9.32
2017-10-31T21:12:19.164Z,9.19
2017-10-31T21:13:19.737Z,9.25
2017-10-31T21:14:20.309Z,9.25
2017-10-31T21:15:20.875Z,9.26
2017-10-31T21:16:21.444Z,9.25
2017-10-31T21:17:22.011Z,9.26
2017-10-31T21:18:22.580Z,9.14
2017-10-31T21:19:23.148Z,9.18
2017-10-31T21:20:23.717Z,9.13
2017-10-31T21:21:24.285Z,9.21
2017-10-31T21:22:24.857Z,9.22
2017-10-31T21:23:25.425Z,9.22
2017-10-31T21:24:25.991Z,9.19
2017-10-31T21:25:26.558Z,9.19
2017-10-31T21:26:27.126Z,9.23
2017-10-31T21:27:27.694Z,9.18
2017-10-31T21:28:28.274Z,9.13
2017-10-31T21:29:28.841Z,9.21
2017-10-31T21:30:29.411Z,9.21
2017-10-31T21:31:29.979Z,9.19
2017-10-31T21:32:30.609Z,9.11
2017-10-31T21:33:31.178Z,9.18
2017-10-31T21:34:31.748Z,9.21
2017-10-31T21:35:32.316Z,9.13
2017-10-31T21:36:32.885Z,9.04
2017-10-31T21:37:33.457Z,9.11
2017-10-31T21:38:34.024Z,9.10
2017-10-31T21:39:34.591Z,9.10
2017-10-31T21:40:35.160Z,9.10
2017-10-31T21:41:35.730Z,9.08
2017-10-31T21:42:36.298Z,9.08
2017-10-31T21:43:36.866Z,9.08
2017-10-31T21:44:37.435Z,9.08
2017-10-31T21:45:38.002Z,9.10
2017-10-31T21:46:38.569Z,9.06
2017-10-31T21:47:39.138Z,9.14
2017-10-31T21:48:39.704Z,9.06
2017-10-31T21:49:40.273Z,9.13
2017-10-31T21:50:40.852Z,9.10
2017-10-31T21:51:41.431Z,9.04
2017-10-31T21:52:41.997Z,9.08
2017-10-31T21:53:42.565Z,9.04
2017-10-31T21:54:43.132Z,9.10
2017-10-31T21:55:43.701Z,9.08
2017-10-31T21:56:44.282Z,9.10
2017-10-31T21:57:44.861Z,9.03
2017-10-31T21:58:45.429Z,9.11